sensor_id;sensor_type;location;lat;lon;timestamp;pressure;altitude;pressure_sealevel;temperature;humidity
56038;BME280;41907;47.848;9.000;2023-05-03T00:00:18;96422.94;;;7.70;100.00
56038;BME280;41907;47.848;9.000;2023-05-03T00:02:44;96409.44;;;7.61;100.00
56038;BME280;41907;47.848;9.000;2023-05-03T00:05:10;96419.25;;;7.61;100.00
56038;BME280;41907;47.848;9.000;2023-05-03T00:07:42;96409.16;;;7.58;100.00
56038;BME280;41907;47.848;9.000;2023-05-03T00:10:08;96417.38;;;7.56;100.00
56038;BME280;41907;47.848;9.000;2023-05-03T00:12:34;96407.56;;;7.57;100.00
56038;BME280;41907;47.848;9.000;2023-05-03T00:14:59;96409.66;;;7.65;100.00
56038;BME280;41907;47.848;9.000;2023-05-03T00:17:25;96410.22;;;7.62;100.00
56038;BME280;41907;47.848;9.000;2023-05-03T00:19:51;96411.03;;;7.57;100.00
56038;BME280;41907;47.848;9.000;2023-05-03T00:22:17;96413.41;;;7.59;100.00
56038;BME280;41907;47.848;9.000;2023-05-03T00:24:43;96410.00;;;7.53;100.00
56038;BME280;41907;47.848;9.000;2023-05-03T00:27:08;96410.53;;;7.50;100.00
56038;BME280;41907;47.848;9.000;2023-05-03T00:29:33;96404.94;;;7.46;100.00
56038;BME280;41907;47.848;9.000;2023-05-03T00:31:58;96400.44;;;7.47;100.00
56038;BME280;41907;47.848;9.000;2023-05-03T00:34:24;96398.31;;;7.49;100.00
56038;BME280;41907;47.848;9.000;2023-05-03T00:36:49;96397.78;;;7.52;100.00
56038;BME280;41907;47.848;9.000;2023-05-03T00:39:15;96399.63;;;7.52;100.00
56038;BME280;41907;47.848;9.000;2023-05-03T00:41:40;96398.56;;;7.53;100.00
56038;BME280;41907;47.848;9.000;2023-05-03T00:44:06;96404.69;;;7.48;100.00
56038;BME280;41907;47.848;9.000;2023-05-03T00:46:31;96393.84;;;7.44;100.00
56038;BME280;41907;47.848;9.000;2023-05-03T00:48:56;96389.31;;;7.45;100.00
56038;BME280;41907;47.848;9.000;2023-05-03T00:51:21;96390.69;;;7.27;100.00
56038;BME280;41907;47.848;9.000;2023-05-03T00:53:47;96381.41;;;7.20;100.00
56038;BME280;41907;47.848;9.000;2023-05-03T00:56:13;96388.31;;;7.21;100.00
56038;BME280;41907;47.848;9.000;2023-05-03T00:58:43;96391.50;;;7.18;100.00
56038;BME280;41907;47.848;9.000;2023-05-03T01:01:08;96393.91;;;7.24;100.00
56038;BME280;41907;47.848;9.000;2023-05-03T01:03:34;96384.59;;;7.22;100.00
56038;BME280;41907;47.848;9.000;2023-05-03T01:06:05;96381.69;;;7.18;100.00
56038;BME280;41907;47.848;9.000;2023-05-03T01:09:16;96377.19;;;7.19;100.00
56038;BME280;41907;47.848;9.000;2023-05-03T01:11:22;96385.16;;;7.14;100.00
56038;BME280;41907;47.848;9.000;2023-05-03T01:13:54;96383.81;;;7.21;100.00
56038;BME280;41907;47.848;9.000;2023-05-03T01:16:23;96381.16;;;7.21;100.00
56038;BME280;41907;47.848;9.000;2023-05-03T01:18:50;96381.41;;;7.20;100.00
56038;BME280;41907;47.848;9.000;2023-05-03T01:21:18;96382.75;;;7.17;100.00
56038;BME280;41907;47.848;9.000;2023-05-03T01:23:56;96384.91;;;7.15;100.00
56038;BME280;41907;47.848;9.000;2023-05-03T01:26:24;96377.22;;;7.03;100.00
56038;BME280;41907;47.848;9.000;2023-05-03T01:28:50;96376.47;;;6.98;100.00
56038;BME280;41907;47.848;9.000;2023-05-03T01:31:24;96371.41;;;6.96;100.00
56038;BME280;41907;47.848;9.000;2023-05-03T01:36:34;96373.53;;;6.94;100.00
56038;BME280;41907;47.848;9.000;2023-05-03T01:41:42;96378.84;;;6.94;100.00
56038;BME280;41907;47.848;9.000;2023-05-03T01:44:07;96373.81;;;6.93;100.00
56038;BME280;41907;47.848;9.000;2023-05-03T01:46:33;96369.56;;;6.92;100.00
56038;BME280;41907;47.848;9.000;2023-05-03T01:48:58;96363.97;;;6.93;100.00
56038;BME280;41907;47.848;9.000;2023-05-03T01:51:23;96354.97;;;6.89;100.00
56038;BME280;41907;47.848;9.000;2023-05-03T01:53:48;96360.81;;;6.91;100.00
56038;BME280;41907;47.848;9.000;2023-05-03T01:56:14;96363.72;;;6.90;100.00
56038;BME280;41907;47.848;9.000;2023-05-03T01:58:39;96354.97;;;6.89;100.00
56038;BME280;41907;47.848;9.000;2023-05-03T02:01:04;96360.00;;;6.91;100.00
56038;BME280;41907;47.848;9.000;2023-05-03T02:03:31;96353.13;;;6.95;100.00
56038;BME280;41907;47.848;9.000;2023-05-03T02:05:56;96353.91;;;6.95;100.00
56038;BME280;41907;47.848;9.000;2023-05-03T02:08:21;96351.25;;;6.95;100.00
56038;BME280;41907;47.848;9.000;2023-05-03T02:10:46;96349.94;;;6.93;100.00
56038;BME280;41907;47.848;9.000;2023-05-03T02:13:12;96353.66;;;6.97;100.00
56038;BME280;41907;47.848;9.000;2023-05-03T02:15:37;96353.88;;;7.00;100.00
56038;BME280;41907;47.848;9.000;2023-05-03T02:18:02;96357.88;;;7.03;100.00
56038;BME280;41907;47.848;9.000;2023-05-03T02:20:27;96363.69;;;7.00;100.00
56038;BME280;41907;47.848;9.000;2023-05-03T02:22:56;96360.25;;;6.99;100.00
56038;BME280;41907;47.848;9.000;2023-05-03T02:25:21;96373.25;;;7.06;100.00
56038;BME280;41907;47.848;9.000;2023-05-03T02:27:46;96367.94;;;7.01;100.00
56038;BME280;41907;47.848;9.000;2023-05-03T02:30:12;96361.06;;;6.95;100.00
56038;BME280;41907;47.848;9.000;2023-05-03T02:32:37;96370.38;;;6.87;100.00
56038;BME280;41907;47.848;9.000;2023-05-03T02:35:02;96364.28;;;6.87;100.00
56038;BME280;41907;47.848;9.000;2023-05-03T02:37:28;96366.66;;;6.83;100.00
56038;BME280;41907;47.848;9.000;2023-05-03T02:39:53;96359.78;;;6.77;100.00
56038;BME280;41907;47.848;9.000;2023-05-03T02:42:18;96362.69;;;6.70;100.00
56038;BME280;41907;47.848;9.000;2023-05-03T02:44:43;96362.16;;;6.73;100.00
56038;BME280;41907;47.848;9.000;2023-05-03T02:47:10;96366.66;;;6.73;100.00
56038;BME280;41907;47.848;9.000;2023-05-03T02:49:35;96369.56;;;6.87;100.00
56038;BME280;41907;47.848;9.000;2023-05-03T02:52:00;96370.09;;;6.84;100.00
56038;BME280;41907;47.848;9.000;2023-05-03T02:54:26;96364.00;;;6.83;100.00
56038;BME280;41907;47.848;9.000;2023-05-03T02:56:51;96357.91;;;6.88;100.00
56038;BME280;41907;47.848;9.000;2023-05-03T02:59:16;96352.63;;;6.78;100.00
56038;BME280;41907;47.848;9.000;2023-05-03T03:01:41;96362.16;;;6.79;100.00
56038;BME280;41907;47.848;9.000;2023-05-03T03:04:07;96361.13;;;6.69;100.00
56038;BME280;41907;47.848;9.000;2023-05-03T03:06:32;96363.75;;;6.64;100.00
56038;BME280;41907;47.848;9.000;2023-05-03T03:08:57;96368.28;;;6.79;100.00
56038;BME280;41907;47.848;9.000;2023-05-03T03:11:22;96367.19;;;6.80;100.00
56038;BME280;41907;47.848;9.000;2023-05-03T03:13:49;96363.50;;;6.76;100.00
56038;BME280;41907;47.848;9.000;2023-05-03T03:16:14;96367.19;;;6.70;100.00
56038;BME280;41907;47.848;9.000;2023-05-03T03:18:39;96369.06;;;6.69;100.00
56038;BME280;41907;47.848;9.000;2023-05-03T03:21:05;96359.00;;;6.77;100.00
56038;BME280;41907;47.848;9.000;2023-05-03T03:23:30;96360.31;;;6.79;100.00
56038;BME280;41907;47.848;9.000;2023-05-03T03:25:55;96366.94;;;6.77;100.00
56038;BME280;41907;47.848;9.000;2023-05-03T03:28:20;96362.97;;;6.74;100.00
56038;BME280;41907;47.848;9.000;2023-05-03T03:30:46;96361.38;;;6.73;100.00
56038;BME280;41907;47.848;9.000;2023-05-03T03:33:11;96371.72;;;6.69;100.00
56038;BME280;41907;47.848;9.000;2023-05-03T03:35:37;96372.00;;;6.68;100.00
56038;BME280;41907;47.848;9.000;2023-05-03T03:38:03;96368.53;;;6.67;100.00
56038;BME280;41907;47.848;9.000;2023-05-03T03:40:28;96373.03;;;6.67;100.00
56038;BME280;41907;47.848;9.000;2023-05-03T03:42:54;96373.03;;;6.62;100.00
56038;BME280;41907;47.848;9.000;2023-05-03T03:45:19;96366.94;;;6.56;100.00
56038;BME280;41907;47.848;9.000;2023-05-03T03:47:44;96372.78;;;6.53;100.00
56038;BME280;41907;47.848;9.000;2023-05-03T03:50:09;96374.09;;;6.56;100.00
56038;BME280;41907;47.848;9.000;2023-05-03T03:52:35;96375.69;;;6.57;100.00
56038;BME280;41907;47.848;9.000;2023-05-03T03:55:00;96373.06;;;6.57;100.00
56038;BME280;41907;47.848;9.000;2023-05-03T03:57:25;96371.44;;;6.61;100.00
56038;BME280;41907;47.848;9.000;2023-05-03T03:59:54;96372.78;;;6.58;100.00
56038;BME280;41907;47.848;9.000;2023-05-03T04:02:19;96378.63;;;6.50;100.00
56038;BME280;41907;47.848;9.000;2023-05-03T04:04:45;96387.63;;;6.54;100.00
56038;BME280;41907;47.848;9.000;2023-05-03T04:07:11;96381.78;;;6.52;100.00
56038;BME280;41907;47.848;9.000;2023-05-03T04:09:36;96384.69;;;6.61;100.00
56038;BME280;41907;47.848;9.000;2023-05-03T04:12:01;96385.22;;;6.63;100.00
56038;BME280;41907;47.848;9.000;2023-05-03T04:14:27;96386.28;;;6.67;100.00
56038;BME280;41907;47.848;9.000;2023-05-03T04:16:52;96395.28;;;6.71;100.00
56038;BME280;41907;47.848;9.000;2023-05-03T04:19:17;96396.09;;;6.77;100.00
56038;BME280;41907;47.848;9.000;2023-05-03T04:21:43;96393.97;;;6.79;100.00
56038;BME280;41907;47.848;9.000;2023-05-03T04:24:08;96399.00;;;6.70;100.00
56038;BME280;41907;47.848;9.000;2023-05-03T04:26:38;96400.84;;;6.80;100.00
56038;BME280;41907;47.848;9.000;2023-05-03T04:29:04;96404.03;;;6.82;100.00
56038;BME280;41907;47.848;9.000;2023-05-03T04:31:30;96402.97;;;6.83;100.00
56038;BME280;41907;47.848;9.000;2023-05-03T04:33:55;96406.41;;;6.83;100.00
56038;BME280;41907;47.848;9.000;2023-05-03T04:36:21;96404.84;;;6.82;100.00
56038;BME280;41907;47.848;9.000;2023-05-03T04:38:49;96402.19;;;6.82;100.00
56038;BME280;41907;47.848;9.000;2023-05-03T04:41:15;96403.50;;;6.90;100.00
56038;BME280;41907;47.848;9.000;2023-05-03T04:43:41;96400.59;;;7.81;100.00
56038;BME280;41907;47.848;9.000;2023-05-03T04:46:07;96407.50;;;8.21;100.00
56038;BME280;41907;47.848;9.000;2023-05-03T04:48:32;96406.31;;;9.58;100.00
56038;BME280;41907;47.848;9.000;2023-05-03T04:50:58;96395.75;;;10.52;100.00
56038;BME280;41907;47.848;9.000;2023-05-03T04:53:23;96399.41;;;11.62;97.33
56038;BME280;41907;47.848;9.000;2023-05-03T04:55:48;96402.78;;;12.66;90.27
56038;BME280;41907;47.848;9.000;2023-05-03T04:58:14;96397.81;;;13.58;84.02
56038;BME280;41907;47.848;9.000;2023-05-03T05:00:40;96396.22;;;14.05;81.06
56038;BME280;41907;47.848;9.000;2023-05-03T05:03:06;96407.00;;;15.00;75.49
56038;BME280;41907;47.848;9.000;2023-05-03T05:05:31;96405.84;;;16.03;68.70
56038;BME280;41907;47.848;9.000;2023-05-03T05:07:56;96417.31;;;16.62;65.64
56038;BME280;41907;47.848;9.000;2023-05-03T05:10:22;96427.84;;;16.76;63.18
56038;BME280;41907;47.848;9.000;2023-05-03T05:12:47;96419.72;;;17.17;61.70
56038;BME280;41907;47.848;9.000;2023-05-03T05:15:12;96423.16;;;15.93;65.52
56038;BME280;41907;47.848;9.000;2023-05-03T05:17:38;96433.22;;;14.42;72.28
56038;BME280;41907;47.848;9.000;2023-05-03T05:20:03;96431.50;;;12.16;85.15
56038;BME280;41907;47.848;9.000;2023-05-03T05:22:32;96439.34;;;10.79;95.45
56038;BME280;41907;47.848;9.000;2023-05-03T05:24:57;96437.06;;;10.54;100.00
56038;BME280;41907;47.848;9.000;2023-05-03T05:27:23;96439.72;;;10.73;100.00
56038;BME280;41907;47.848;9.000;2023-05-03T05:29:48;96446.47;;;11.16;99.52
56038;BME280;41907;47.848;9.000;2023-05-03T05:32:13;96445.81;;;11.38;98.95
56038;BME280;41907;47.848;9.000;2023-05-03T05:34:38;96440.41;;;12.25;92.87
56038;BME280;41907;47.848;9.000;2023-05-03T05:37:04;96444.75;;;11.53;94.09
56038;BME280;41907;47.848;9.000;2023-05-03T05:39:29;96444.19;;;11.83;95.43
56038;BME280;41907;47.848;9.000;2023-05-03T05:41:55;96444.22;;;12.69;91.63
56038;BME280;41907;47.848;9.000;2023-05-03T05:44:20;96439.09;;;13.48;84.51
56038;BME280;41907;47.848;9.000;2023-05-03T05:46:45;96444.69;;;12.93;86.38
56038;BME280;41907;47.848;9.000;2023-05-03T05:49:11;96443.66;;;11.40;95.80
56038;BME280;41907;47.848;9.000;2023-05-03T05:51:36;96446.38;;;10.89;99.91
56038;BME280;41907;47.848;9.000;2023-05-03T05:54:02;96445.06;;;10.35;100.00
56038;BME280;41907;47.848;9.000;2023-05-03T05:56:27;96444.66;;;10.47;100.00
56038;BME280;41907;47.848;9.000;2023-05-03T05:58:52;96449.38;;;10.31;100.00
56038;BME280;41907;47.848;9.000;2023-05-03T06:01:18;96456.63;;;9.83;100.00
56038;BME280;41907;47.848;9.000;2023-05-03T06:03:43;96458.44;;;9.64;100.00
56038;BME280;41907;47.848;9.000;2023-05-03T06:06:08;96464.25;;;9.71;100.00
56038;BME280;41907;47.848;9.000;2023-05-03T06:08:33;96454.25;;;9.82;100.00
56038;BME280;41907;47.848;9.000;2023-05-03T06:10:59;96456.06;;;9.86;100.00
56038;BME280;41907;47.848;9.000;2023-05-03T06:13:24;96456.88;;;9.87;100.00
56038;BME280;41907;47.848;9.000;2023-05-03T06:15:50;96454.47;;;9.85;100.00
56038;BME280;41907;47.848;9.000;2023-05-03T06:18:15;96456.63;;;10.07;100.00
56038;BME280;41907;47.848;9.000;2023-05-03T06:20:40;96459.84;;;10.04;100.00
56038;BME280;41907;47.848;9.000;2023-05-03T06:23:06;96459.78;;;10.09;100.00
56038;BME280;41907;47.848;9.000;2023-05-03T06:25:31;96463.88;;;10.01;100.00
56038;BME280;41907;47.848;9.000;2023-05-03T06:27:56;96459.53;;;9.87;100.00
56038;BME280;41907;47.848;9.000;2023-05-03T06:30:21;96458.25;;;10.03;100.00
56038;BME280;41907;47.848;9.000;2023-05-03T06:32:49;96449.81;;;10.57;100.00
56038;BME280;41907;47.848;9.000;2023-05-03T06:35:14;96449.69;;;11.32;100.00
56038;BME280;41907;47.848;9.000;2023-05-03T06:37:42;96451.09;;;11.57;100.00
56038;BME280;41907;47.848;9.000;2023-05-03T06:40:07;96460.53;;;11.82;98.90
56038;BME280;41907;47.848;9.000;2023-05-03T06:42:33;96453.09;;;11.92;96.81
56038;BME280;41907;47.848;9.000;2023-05-03T06:44:58;96444.84;;;11.62;98.74
56038;BME280;41907;47.848;9.000;2023-05-03T06:47:24;96450.16;;;11.21;100.00
56038;BME280;41907;47.848;9.000;2023-05-03T06:49:49;96444.34;;;11.32;100.00
56038;BME280;41907;47.848;9.000;2023-05-03T06:52:15;96448.81;;;11.64;99.16
56038;BME280;41907;47.848;9.000;2023-05-03T06:54:40;96457.00;;;11.54;99.78
56038;BME280;41907;47.848;9.000;2023-05-03T06:57:05;96459.91;;;11.11;100.00
56038;BME280;41907;47.848;9.000;2023-05-03T06:59:31;96458.91;;;11.07;100.00
56038;BME280;41907;47.848;9.000;2023-05-03T07:01:56;96460.78;;;11.07;100.00
56038;BME280;41907;47.848;9.000;2023-05-03T07:04:22;96463.59;;;10.97;100.00
56038;BME280;41907;47.848;9.000;2023-05-03T07:06:47;96450.69;;;11.04;100.00
56038;BME280;41907;47.848;9.000;2023-05-03T07:09:12;96452.03;;;11.34;100.00
56038;BME280;41907;47.848;9.000;2023-05-03T07:11:38;96448.88;;;11.32;100.00
56038;BME280;41907;47.848;9.000;2023-05-03T07:14:08;96442.25;;;11.43;100.00
56038;BME280;41907;47.848;9.000;2023-05-03T07:16:34;96453.84;;;11.38;100.00
56038;BME280;41907;47.848;9.000;2023-05-03T07:18:59;96452.28;;;11.65;100.00
56038;BME280;41907;47.848;9.000;2023-05-03T07:21:24;96448.97;;;11.27;100.00
56038;BME280;41907;47.848;9.000;2023-05-03T07:23:50;96450.66;;;11.23;100.00
56038;BME280;41907;47.848;9.000;2023-05-03T07:26:16;96447.38;;;11.26;100.00
56038;BME280;41907;47.848;9.000;2023-05-03T07:28:41;96444.38;;;11.60;100.00
56038;BME280;41907;47.848;9.000;2023-05-03T07:31:06;96448.44;;;11.84;98.48
56038;BME280;41907;47.848;9.000;2023-05-03T07:33:34;96446.34;;;13.03;92.41
56038;BME280;41907;47.848;9.000;2023-05-03T07:36:01;96441.19;;;12.26;95.12
56038;BME280;41907;47.848;9.000;2023-05-03T07:38:26;96442.03;;;11.85;98.71
56038;BME280;41907;47.848;9.000;2023-05-03T07:40:51;96448.22;;;11.67;99.49
56038;BME280;41907;47.848;9.000;2023-05-03T07:43:17;96441.31;;;12.07;99.79
56038;BME280;41907;47.848;9.000;2023-05-03T07:45:44;96438.38;;;12.31;96.10
56038;BME280;41907;47.848;9.000;2023-05-03T07:48:09;96435.00;;;13.20;92.69
56038;BME280;41907;47.848;9.000;2023-05-03T07:50:35;96430.81;;;14.32;86.85
56038;BME280;41907;47.848;9.000;2023-05-03T07:53:00;96422.94;;;14.96;80.70
56038;BME280;41907;47.848;9.000;2023-05-03T07:55:25;96424.22;;;14.56;81.87
56038;BME280;41907;47.848;9.000;2023-05-03T07:57:51;96426.50;;;14.05;85.40
56038;BME280;41907;47.848;9.000;2023-05-03T08:00:22;96414.84;;;14.27;85.23
56038;BME280;41907;47.848;9.000;2023-05-03T08:02:47;96417.69;;;13.57;86.72
56038;BME280;41907;47.848;9.000;2023-05-03T08:05:12;96418.31;;;13.62;87.13
56038;BME280;41907;47.848;9.000;2023-05-03T08:07:38;96420.44;;;13.83;87.60
56038;BME280;41907;47.848;9.000;2023-05-03T08:10:04;96404.59;;;14.21;84.15
56038;BME280;41907;47.848;9.000;2023-05-03T08:12:29;96407.25;;;14.03;84.67
56038;BME280;41907;47.848;9.000;2023-05-03T08:14:54;96416.06;;;13.47;87.16
56038;BME280;41907;47.848;9.000;2023-05-03T08:17:20;96410.94;;;13.28;88.94
56038;BME280;41907;47.848;9.000;2023-05-03T08:19:46;96416.00;;;13.30;89.50
56038;BME280;41907;47.848;9.000;2023-05-03T08:22:11;96416.75;;;13.61;88.61
56038;BME280;41907;47.848;9.000;2023-05-03T08:24:40;96415.84;;;14.40;85.91
56038;BME280;41907;47.848;9.000;2023-05-03T08:27:06;96414.13;;;14.87;83.01
56038;BME280;41907;47.848;9.000;2023-05-03T08:29:32;96418.06;;;15.62;78.65
56038;BME280;41907;47.848;9.000;2023-05-03T08:31:57;96415.13;;;15.38;78.95
56038;BME280;41907;47.848;9.000;2023-05-03T08:34:23;96407.19;;;14.69;79.44
56038;BME280;41907;47.848;9.000;2023-05-03T08:36:49;96421.06;;;14.45;82.21
56038;BME280;41907;47.848;9.000;2023-05-03T08:39:14;96422.28;;;14.13;83.46
56038;BME280;41907;47.848;9.000;2023-05-03T08:41:39;96415.69;;;14.97;79.76
56038;BME280;41907;47.848;9.000;2023-05-03T08:44:05;96420.50;;;15.29;78.70
56038;BME280;41907;47.848;9.000;2023-05-03T08:46:31;96424.91;;;15.42;78.55
56038;BME280;41907;47.848;9.000;2023-05-03T08:49:01;96419.84;;;15.87;76.35
56038;BME280;41907;47.848;9.000;2023-05-03T08:51:26;96422.31;;;16.51;74.05
56038;BME280;41907;47.848;9.000;2023-05-03T08:53:52;96418.91;;;16.84;72.13
56038;BME280;41907;47.848;9.000;2023-05-03T08:58:52;96416.19;;;16.84;69.97
56038;BME280;41907;47.848;9.000;2023-05-03T09:01:17;96422.63;;;16.70;67.44
56038;BME280;41907;47.848;9.000;2023-05-03T09:03:47;96418.19;;;16.24;69.51
56038;BME280;41907;47.848;9.000;2023-05-03T09:06:20;96423.75;;;15.60;73.12
56038;BME280;41907;47.848;9.000;2023-05-03T09:08:45;96420.06;;;15.27;75.39
56038;BME280;41907;47.848;9.000;2023-05-03T09:11:20;96417.84;;;15.12;75.33
56038;BME280;41907;47.848;9.000;2023-05-03T09:13:46;96420.88;;;15.02;75.53
56038;BME280;41907;47.848;9.000;2023-05-03T09:16:11;96419.63;;;14.99;76.25
56038;BME280;41907;47.848;9.000;2023-05-03T09:18:54;96423.16;;;15.55;76.03
56038;BME280;41907;47.848;9.000;2023-05-03T09:21:20;96428.00;;;16.29;73.72
56038;BME280;41907;47.848;9.000;2023-05-03T09:23:45;96432.19;;;16.18;71.70
56038;BME280;41907;47.848;9.000;2023-05-03T09:26:10;96418.09;;;16.42;70.06
56038;BME280;41907;47.848;9.000;2023-05-03T09:28:51;96423.69;;;16.07;70.25
56038;BME280;41907;47.848;9.000;2023-05-03T09:31:16;96424.72;;;16.44;71.02
56038;BME280;41907;47.848;9.000;2023-05-03T09:33:42;96421.47;;;16.09;71.47
56038;BME280;41907;47.848;9.000;2023-05-03T09:36:07;96418.28;;;16.36;70.93
56038;BME280;41907;47.848;9.000;2023-05-03T09:38:33;96412.63;;;16.29;68.62
56038;BME280;41907;47.848;9.000;2023-05-03T09:40:58;96414.91;;;16.69;68.43
56038;BME280;41907;47.848;9.000;2023-05-03T09:43:25;96423.78;;;16.19;69.36
56038;BME280;41907;47.848;9.000;2023-05-03T09:45:50;96411.75;;;15.87;71.68
56038;BME280;41907;47.848;9.000;2023-05-03T09:48:16;96411.66;;;16.13;70.73
56038;BME280;41907;47.848;9.000;2023-05-03T09:50:41;96412.91;;;16.36;70.93
56038;BME280;41907;47.848;9.000;2023-05-03T09:53:07;96405.63;;;16.58;71.59
56038;BME280;41907;47.848;9.000;2023-05-03T09:55:33;96407.38;;;16.54;70.27
56038;BME280;41907;47.848;9.000;2023-05-03T09:57:58;96399.94;;;16.92;68.55
56038;BME280;41907;47.848;9.000;2023-05-03T10:00:24;96409.91;;;16.80;69.08
56038;BME280;41907;47.848;9.000;2023-05-03T10:02:49;96399.69;;;16.44;71.33
56038;BME280;41907;47.848;9.000;2023-05-03T10:05:15;96397.63;;;16.70;71.14
56038;BME280;41907;47.848;9.000;2023-05-03T10:07:45;96398.13;;;16.84;69.44
56038;BME280;41907;47.848;9.000;2023-05-03T10:10:12;96397.97;;;17.01;69.81
56038;BME280;41907;47.848;9.000;2023-05-03T10:12:37;96393.78;;;16.92;68.40
56038;BME280;41907;47.848;9.000;2023-05-03T10:15:03;96402.81;;;16.75;70.83
56038;BME280;41907;47.848;9.000;2023-05-03T10:17:31;96399.72;;;16.85;68.70
56038;BME280;41907;47.848;9.000;2023-05-03T10:20:15;96389.50;;;16.91;68.32
56038;BME280;41907;47.848;9.000;2023-05-03T10:23:05;96384.13;;;16.91;66.85
56038;BME280;41907;47.848;9.000;2023-05-03T10:25:31;96376.72;;;17.00;69.31
56038;BME280;41907;47.848;9.000;2023-05-03T10:28:06;96381.00;;;16.68;69.17
56038;BME280;41907;47.848;9.000;2023-05-03T10:30:41;96381.59;;;17.06;69.97
56038;BME280;41907;47.848;9.000;2023-05-03T10:35:40;96373.53;;;17.19;67.09
56038;BME280;41907;47.848;9.000;2023-05-03T10:38:12;96377.97;;;17.35;65.81
56038;BME280;41907;47.848;9.000;2023-05-03T10:40:41;96373.22;;;17.32;68.00
56038;BME280;41907;47.848;9.000;2023-05-03T10:43:09;96373.78;;;17.38;65.17
56038;BME280;41907;47.848;9.000;2023-05-03T10:45:52;96368.72;;;17.24;64.47
56038;BME280;41907;47.848;9.000;2023-05-03T10:48:17;96376.75;;;17.45;65.03
56038;BME280;41907;47.848;9.000;2023-05-03T10:50:52;96373.91;;;17.41;63.69
56038;BME280;41907;47.848;9.000;2023-05-03T10:56:04;96385.91;;;17.32;60.68
56038;BME280;41907;47.848;9.000;2023-05-03T10:58:34;96381.97;;;17.29;63.49
56038;BME280;41907;47.848;9.000;2023-05-03T11:00:59;96372.63;;;17.15;62.36
56038;BME280;41907;47.848;9.000;2023-05-03T11:03:33;96380.13;;;17.09;63.25
56038;BME280;41907;47.848;9.000;2023-05-03T11:06:02;96378.59;;;17.20;62.73
56038;BME280;41907;47.848;9.000;2023-05-03T11:08:28;96368.91;;;17.07;64.55
56038;BME280;41907;47.848;9.000;2023-05-03T11:11:01;96377.28;;;17.38;64.90
56038;BME280;41907;47.848;9.000;2023-05-03T11:13:27;96370.72;;;17.27;61.97
56038;BME280;41907;47.848;9.000;2023-05-03T11:15:55;96367.38;;;17.30;60.95
56038;BME280;41907;47.848;9.000;2023-05-03T11:18:21;96371.19;;;17.29;59.98
56038;BME280;41907;47.848;9.000;2023-05-03T11:20:46;96371.88;;;17.26;60.72
56038;BME280;41907;47.848;9.000;2023-05-03T11:23:12;96370.16;;;17.22;61.37
56038;BME280;41907;47.848;9.000;2023-05-03T11:25:37;96358.19;;;17.43;60.88
56038;BME280;41907;47.848;9.000;2023-05-03T11:28:03;96355.94;;;17.45;61.52
56038;BME280;41907;47.848;9.000;2023-05-03T11:30:28;96358.75;;;17.49;59.66
56038;BME280;41907;47.848;9.000;2023-05-03T11:32:54;96362.25;;;17.62;59.92
56038;BME280;41907;47.848;9.000;2023-05-03T11:35:20;96352.34;;;17.54;58.31
56038;BME280;41907;47.848;9.000;2023-05-03T11:37:48;96354.72;;;17.43;58.15
56038;BME280;41907;47.848;9.000;2023-05-03T11:40:13;96357.06;;;17.57;56.97
56038;BME280;41907;47.848;9.000;2023-05-03T11:42:50;96348.44;;;17.88;57.63
56038;BME280;41907;47.848;9.000;2023-05-03T11:45:17;96361.50;;;17.73;56.66
56038;BME280;41907;47.848;9.000;2023-05-03T11:47:43;96353.16;;;17.66;57.81
56038;BME280;41907;47.848;9.000;2023-05-03T11:50:09;96342.81;;;17.68;57.79
56038;BME280;41907;47.848;9.000;2023-05-03T11:52:35;96347.22;;;17.73;57.81
56038;BME280;41907;47.848;9.000;2023-05-03T11:55:01;96337.75;;;17.79;57.92
56038;BME280;41907;47.848;9.000;2023-05-03T11:57:26;96332.03;;;17.68;56.66
56038;BME280;41907;47.848;9.000;2023-05-03T11:59:51;96327.50;;;17.48;58.30
56038;BME280;41907;47.848;9.000;2023-05-03T12:02:17;96330.25;;;17.72;58.00
56038;BME280;41907;47.848;9.000;2023-05-03T12:04:42;96322.22;;;17.52;57.66
56038;BME280;41907;47.848;9.000;2023-05-03T12:07:08;96334.53;;;17.73;57.94
56038;BME280;41907;47.848;9.000;2023-05-03T12:09:34;96330.88;;;17.57;57.85
56038;BME280;41907;47.848;9.000;2023-05-03T12:12:02;96328.97;;;17.58;58.92
56038;BME280;41907;47.848;9.000;2023-05-03T12:14:29;96322.13;;;17.60;60.53
56038;BME280;41907;47.848;9.000;2023-05-03T12:17:13;96314.81;;;17.48;58.56
56038;BME280;41907;47.848;9.000;2023-05-03T12:19:39;96331.69;;;17.82;58.82
56038;BME280;41907;47.848;9.000;2023-05-03T12:22:04;96326.16;;;17.42;58.79
56038;BME280;41907;47.848;9.000;2023-05-03T12:24:43;96320.56;;;17.35;61.08
56038;BME280;41907;47.848;9.000;2023-05-03T12:27:08;96318.28;;;17.37;61.43
56038;BME280;41907;47.848;9.000;2023-05-03T12:29:33;96308.06;;;17.42;61.56
56038;BME280;41907;47.848;9.000;2023-05-03T12:31:59;96315.50;;;17.45;57.48
56038;BME280;41907;47.848;9.000;2023-05-03T12:34:26;96320.09;;;17.45;58.40
56038;BME280;41907;47.848;9.000;2023-05-03T12:36:52;96315.16;;;17.59;59.78
56038;BME280;41907;47.848;9.000;2023-05-03T12:39:17;96311.91;;;17.66;60.63
56038;BME280;41907;47.848;9.000;2023-05-03T12:41:42;96318.19;;;17.33;59.32
56038;BME280;41907;47.848;9.000;2023-05-03T12:44:07;96321.13;;;17.53;59.07
56038;BME280;41907;47.848;9.000;2023-05-03T12:46:33;96314.91;;;17.40;60.66
56038;BME280;41907;47.848;9.000;2023-05-03T12:48:58;96306.47;;;17.29;59.53
56038;BME280;41907;47.848;9.000;2023-05-03T12:51:23;96309.38;;;17.12;62.98
56038;BME280;41907;47.848;9.000;2023-05-03T12:53:51;96303.34;;;17.39;61.53
56038;BME280;41907;47.848;9.000;2023-05-03T12:56:16;96300.63;;;17.27;62.56
56038;BME280;41907;47.848;9.000;2023-05-03T12:58:42;96308.41;;;17.29;63.75
56038;BME280;41907;47.848;9.000;2023-05-03T13:01:08;96303.31;;;17.27;60.92
56038;BME280;41907;47.848;9.000;2023-05-03T13:03:34;96313.56;;;17.22;61.22
56038;BME280;41907;47.848;9.000;2023-05-03T13:05:59;96298.41;;;17.29;62.25
56038;BME280;41907;47.848;9.000;2023-05-03T13:08:24;96313.13;;;17.56;61.09